Time;durP1;ratioP1;P1;durP2;ratioP2;P2;SDS_P1;SDS_P2;PMS_P1;PMS_P2;Temp;Humidity;BMP_temperature;BMP_pressure;BME280_temperature;BME280_humidity;BME280_pressure;Samples;Min_cycle;Max_cycle;Signal;HPM_P1;HPM_P2
2022/01/10 00:01:07;;;;;;;71.83;39.43;;;1.20;99.90;;;;;;2603254;54;20900;31
2022/01/10 00:03:46;;;;;;;76.45;42.03;;;1.20;99.90;;;;;;2603345;54;20290;31
2022/01/10 00:06:33;;;;;;;71.22;38.58;;;1.20;99.90;;;;;;2603233;54;20072;31
2022/01/10 00:09:23;;;;;;;75.20;40.85;;;1.20;99.90;;;;;;2603068;54;20094;31
2022/01/10 00:12:00;;;;;;;75.93;39.55;;;1.20;99.90;;;;;;2603270;54;20033;31
2022/01/10 00:14:47;;;;;;;80.43;41.23;;;1.20;99.90;;;;;;2603204;54;20023;31
2022/01/10 00:17:22;;;;;;;77.57;42.28;;;1.20;99.90;;;;;;2603260;54;20093;31
2022/01/10 00:19:59;;;;;;;91.80;46.90;;;1.30;99.90;;;;;;2603455;54;20057;31
2022/01/10 00:22:34;;;;;;;91.75;45.70;;;1.30;99.90;;;;;;2603476;54;20285;31
2022/01/10 00:25:31;;;;;;;85.90;45.80;;;1.30;99.90;;;;;;2603205;54;20052;31
2022/01/10 00:28:14;;;;;;;75.10;39.75;;;1.30;99.90;;;;;;2603288;54;20302;31
2022/01/10 00:30:57;;;;;;;83.23;43.13;;;1.30;99.90;;;;;;2603031;54;20074;31
2022/01/10 00:45:58;;;;;;;74.28;39.95;;;1.30;99.90;;;;;;2607050;46;20026;31
2022/01/10 00:52:13;;;;;;;75.47;38.95;;;1.30;99.90;;;;;;2603480;54;20089;31
2022/01/10 00:58:17;;;;;;;68.30;38.03;;;1.30;99.90;;;;;;2603143;54;20059;31
2022/01/10 01:01:02;;;;;;;66.45;36.25;;;1.30;99.90;;;;;;2603309;54;20876;31
2022/01/10 01:06:39;;;;;;;71.95;37.30;;;1.20;99.90;;;;;;2621580;46;20090;31
2022/01/10 01:12:45;;;;;;;62.53;35.78;;;1.30;99.90;;;;;;2608538;46;20050;31
2022/01/10 01:19:29;;;;;;;65.67;36.67;;;1.30;99.90;;;;;;2621927;46;20922;31
2022/01/10 01:28:32;;;;;;;64.18;34.67;;;1.20;99.90;;;;;;2602992;54;20900;31
2022/01/10 01:31:25;;;;;;;63.80;35.45;;;1.20;99.90;;;;;;2602875;54;20682;31
2022/01/10 01:37:24;;;;;;;65.28;36.60;;;1.30;99.90;;;;;;2602891;54;20826;31
2022/01/10 01:43:22;;;;;;;64.95;34.63;;;1.30;99.90;;;;;;2603785;54;19939;31
2022/01/10 01:48:55;;;;;;;60.85;35.70;;;1.20;99.90;;;;;;2603785;54;20034;31
2022/01/10 01:51:57;;;;;;;64.50;34.90;;;1.30;99.90;;;;;;2622168;46;20064;31
2022/01/10 01:57:45;;;;;;;62.30;35.58;;;1.40;99.90;;;;;;2603913;54;21018;31
2022/01/10 02:00:44;;;;;;;62.28;35.72;;;1.30;99.90;;;;;;2622006;46;20046;31
2022/01/10 02:06:21;;;;;;;60.47;33.55;;;1.30;99.90;;;;;;2603636;54;20850;31
2022/01/10 02:09:26;;;;;;;72.15;38.08;;;1.40;99.90;;;;;;2603652;54;20150;31
2022/01/10 02:21:43;;;;;;;;;;;1.40;99.90;;;;;;2603669;54;20077;31
2022/01/10 02:24:59;;;;;;;66.10;34.88;;;1.40;99.90;;;;;;2603737;54;20789;31
2022/01/10 02:27:48;;;;;;;61.70;37.38;;;1.40;99.90;;;;;;2603706;54;20866;31
2022/01/10 02:36:20;;;;;;;69.43;38.70;;;1.50;99.90;;;;;;2603362;54;20847;31
2022/01/10 02:42:30;;;;;;;57.78;32.47;;;1.50;99.90;;;;;;2622111;46;20081;31
2022/01/10 02:45:36;;;;;;;61.23;33.77;;;1.60;99.90;;;;;;2603670;54;20029;31
2022/01/10 02:54:25;;;;;;;67.43;37.25;;;1.60;99.90;;;;;;2603311;54;20875;31
2022/01/10 03:09:28;;;;;;;66.25;38.90;;;1.50;99.90;;;;;;2620400;46;20022;31
2022/01/10 03:12:15;;;;;;;71.90;39.30;;;1.60;99.90;;;;;;2621174;46;20149;31
2022/01/10 03:15:27;;;;;;;69.70;37.95;;;1.50;99.90;;;;;;2620769;46;20914;31
2022/01/10 03:18:16;;;;;;;71.07;38.47;;;1.50;99.90;;;;;;2603599;54;20022;31
2022/01/10 03:27:46;;;;;;;62.55;35.85;;;1.50;99.90;;;;;;2602753;54;20026;31
2022/01/10 03:33:39;;;;;;;61.60;31.95;;;1.50;99.90;;;;;;2603426;54;20894;31
2022/01/10 03:36:55;;;;;;;63.70;33.85;;;1.50;99.90;;;;;;2602864;54;20026;31
2022/01/10 03:39:52;;;;;;;69.80;38.15;;;1.50;99.90;;;;;;2603598;54;20038;31
2022/01/10 03:54:58;;;;;;;;;;;;;;;;;;;;;
2022/01/10 03:57:58;;;;;;;;;;;;;;;;;;;;;
2022/01/10 04:06:47;;;;;;;75.35;42.28;;;1.50;99.90;;;;;;2602913;54;20056;31
2022/01/10 04:09:55;;;;;;;72.40;41.55;;;1.50;99.90;;;;;;2603466;54;20756;31
2022/01/10 04:15:49;;;;;;;69.57;35.67;;;1.50;99.90;;;;;;2603252;54;20027;31
2022/01/10 04:18:38;;;;;;;55.30;32.67;;;1.50;99.90;;;;;;2603313;54;20072;31
2022/01/10 04:21:42;;;;;;;66.28;38.28;;;1.40;99.90;;;;;;2603373;54;20898;31
2022/01/10 04:30:47;;;;;;;80.45;44.55;;;1.40;99.90;;;;;;2603207;54;20018;31
2022/01/10 04:33:29;;;;;;;71.90;39.30;;;1.40;99.90;;;;;;2603485;54;20048;31
2022/01/10 04:36:05;;;;;;;68.65;39.88;;;1.40;99.90;;;;;;2603223;54;20785;31
2022/01/10 04:42:04;;;;;;;62.10;34.60;;;1.40;99.90;;;;;;2607641;46;20023;31
2022/01/10 04:44:42;;;;;;;62.78;35.90;;;1.40;99.90;;;;;;2603430;54;20860;31
2022/01/10 04:47:18;;;;;;;57.40;32.67;;;1.30;99.90;;;;;;2603513;54;20022;31
2022/01/10 04:50:34;;;;;;;57.15;34.25;;;1.30;99.90;;;;;;2603119;54;20022;31
2022/01/10 05:03:41;;;;;;;68.90;37.90;;;1.30;99.90;;;;;;2603221;54;20887;31
2022/01/10 05:13:16;;;;;;;63.10;35.33;;;1.30;99.90;;;;;;2602937;54;20031;31
2022/01/10 05:28:37;;;;;;;60.50;35.20;;;1.30;99.90;;;;;;2621403;46;20100;31
2022/01/10 05:34:08;;;;;;;60.40;34.95;;;1.30;99.90;;;;;;2603059;54;20045;31
2022/01/10 05:53:10;;;;;;;;;;;;;;;;;;;;;
2022/01/10 05:56:04;;;;;;;67.35;37.92;;;1.40;99.90;;;;;;2602944;54;20022;31
2022/01/10 06:01:54;;;;;;;59.65;37.20;;;1.40;99.90;;;;;;2603078;54;20019;31
2022/01/10 06:04:34;;;;;;;55.53;32.38;;;1.30;99.90;;;;;;2602841;54;20144;31
2022/01/10 06:07:34;;;;;;;63.08;36.33;;;1.30;99.90;;;;;;2603011;54;20927;31
2022/01/10 06:10:18;;;;;;;59.42;35.03;;;1.30;99.90;;;;;;2603099;54;20037;31
2022/01/10 06:13:03;;;;;;;55.90;33.70;;;1.30;99.90;;;;;;2602902;54;20022;31
2022/01/10 06:15:43;;;;;;;53.60;32.13;;;1.20;99.90;;;;;;2602965;54;20775;31
2022/01/10 06:18:31;;;;;;;59.85;33.65;;;1.20;99.90;;;;;;2602076;54;20101;31
2022/01/10 06:21:17;;;;;;;53.95;32.30;;;1.20;99.90;;;;;;2602279;54;20915;31
2022/01/10 06:23:52;;;;;;;61.43;33.90;;;1.20;99.90;;;;;;2602761;54;20879;31
2022/01/10 06:26:29;;;;;;;60.40;33.88;;;1.20;99.90;;;;;;2602935;54;20368;31
2022/01/10 06:29:08;;;;;;;82.05;45.20;;;1.20;99.90;;;;;;2603345;54;20085;31
2022/01/10 06:34:37;;;;;;;67.30;38.30;;;1.30;99.90;;;;;;2603472;54;20030;31
2022/01/10 06:37:20;;;;;;;65.45;36.22;;;1.20;99.90;;;;;;2621956;46;20077;31
2022/01/10 06:39:57;;;;;;;60.10;34.60;;;1.20;99.90;;;;;;2603669;54;20033;31
2022/01/10 06:45:30;;;;;;;59.42;32.72;;;1.20;99.90;;;;;;2603749;54;20127;31
2022/01/10 06:48:10;;;;;;;56.20;34.10;;;1.20;99.90;;;;;;2602926;54;20784;31
2022/01/10 06:50:49;;;;;;;56.05;32.53;;;1.20;99.90;;;;;;2622215;46;20026;31
2022/01/10 06:56:23;;;;;;;60.33;36.33;;;1.10;99.90;;;;;;2603584;54;20117;31
2022/01/10 06:58:58;;;;;;;61.90;37.10;;;1.10;99.90;;;;;;2603574;54;20030;31
2022/01/10 07:01:43;;;;;;;65.18;36.17;;;1.10;99.90;;;;;;2622074;46;19941;31
2022/01/10 07:04:43;;;;;;;51.58;30.95;;;1.10;99.90;;;;;;2621880;46;20792;31
2022/01/10 07:07:36;;;;;;;56.10;33.28;;;1.10;99.90;;;;;;2603486;54;20026;31
2022/01/10 07:10:54;;;;;;;53.67;31.80;;;1.20;99.90;;;;;;2603742;54;20860;31
2022/01/10 07:13:32;;;;;;;59.15;30.40;;;1.20;99.90;;;;;;2621698;46;20844;31
2022/01/10 07:16:24;;;;;;;55.63;32.00;;;1.10;99.90;;;;;;2622168;46;20038;31
2022/01/10 07:21:54;;;;;;;54.30;30.10;;;1.10;99.90;;;;;;2603544;54;20026;31
2022/01/10 07:24:32;;;;;;;48.00;29.70;;;1.20;99.90;;;;;;2603429;54;19942;31
2022/01/10 07:27:28;;;;;;;51.53;29.02;;;1.20;99.90;;;;;;2603434;54;20885;31
2022/01/10 07:30:31;;;;;;;56.92;31.02;;;1.20;99.90;;;;;;2603638;54;20981;31
2022/01/10 07:33:15;;;;;;;62.10;34.08;;;1.20;99.90;;;;;;2603404;54;20115;31
2022/01/10 07:38:57;;;;;;;57.35;32.90;;;1.20;99.90;;;;;;2621988;46;20026;31
2022/01/10 07:41:33;;;;;;;57.17;32.60;;;1.20;99.90;;;;;;2603390;54;20796;31
2022/01/10 07:44:24;;;;;;;54.95;30.63;;;1.20;99.90;;;;;;2603599;54;20041;31
2022/01/10 07:46:58;;;;;;;58.30;32.85;;;1.20;99.90;;;;;;2603467;54;20939;31
2022/01/10 07:49:44;;;;;;;52.80;30.43;;;1.20;99.90;;;;;;2603166;54;21199;31
2022/01/10 07:52:31;;;;;;;51.80;30.15;;;1.20;99.90;;;;;;2603583;54;20033;31
2022/01/10 08:08:40;;;;;;;52.70;31.23;;;1.30;99.90;;;;;;2603372;54;20022;31
2022/01/10 08:14:05;;;;;;;68.40;34.50;;;1.30;99.90;;;;;;2619851;46;20026;31
2022/01/10 08:23:19;;;;;;;62.73;35.10;;;1.30;99.90;;;;;;2603455;54;20910;31
2022/01/10 08:26:10;;;;;;;61.67;35.13;;;1.30;99.90;;;;;;2602976;54;21025;31
2022/01/10 08:35:31;;;;;;;72.32;38.15;;;1.40;99.90;;;;;;2603131;54;20022;31
2022/01/10 08:38:13;;;;;;;70.28;37.45;;;1.40;99.90;;;;;;2603164;54;20023;31
2022/01/10 08:43:48;;;;;;;70.80;37.90;;;1.40;99.90;;;;;;2603361;54;20116;31
2022/01/10 08:46:27;;;;;;;72.40;40.00;;;1.50;99.90;;;;;;2603322;54;20113;31
2022/01/10 08:49:15;;;;;;;77.10;41.80;;;1.50;99.90;;;;;;2603336;54;20778;31
2022/01/10 08:52:04;;;;;;;74.10;40.80;;;1.60;99.90;;;;;;2603128;54;20030;31
2022/01/10 08:57:51;;;;;;;65.82;38.85;;;1.60;99.90;;;;;;2602881;54;20081;31
2022/01/10 09:04:15;;;;;;;72.88;41.42;;;1.70;99.90;;;;;;2603442;54;20243;31
2022/01/10 09:07:13;;;;;;;71.30;39.90;;;1.80;99.90;;;;;;2603113;54;20057;31
2022/01/10 09:09:56;;;;;;;85.57;44.35;;;1.80;99.90;;;;;;2603086;54;20030;31
2022/01/10 09:12:44;;;;;;;82.10;44.83;;;1.80;99.90;;;;;;2603114;54;20053;31
2022/01/10 09:15:23;;;;;;;81.70;44.55;;;1.90;99.90;;;;;;2603261;54;20037;31
2022/01/10 09:18:07;;;;;;;81.60;45.60;;;2.00;99.90;;;;;;2719893;39;21086;31
2022/01/10 09:20:58;;;;;;;87.35;45.85;;;2.00;99.90;;;;;;2602898;54;20077;31
2022/01/10 09:23:34;;;;;;;84.10;46.20;;;2.10;99.90;;;;;;2621675;46;20782;31
2022/01/10 09:26:09;;;;;;;78.63;44.75;;;2.20;99.90;;;;;;2603011;54;20069;31
2022/01/10 09:28:45;;;;;;;87.43;46.35;;;2.20;99.90;;;;;;2603225;54;20082;31
2022/01/10 09:31:20;;;;;;;84.68;46.85;;;2.30;99.90;;;;;;2621487;46;20029;31
2022/01/10 09:34:00;;;;;;;84.15;47.38;;;2.40;99.90;;;;;;2603173;54;20133;31
2022/01/10 09:37:01;;;;;;;81.83;43.93;;;2.40;99.90;;;;;;2603355;54;20053;31
2022/01/10 09:39:44;;;;;;;91.68;50.72;;;2.50;99.90;;;;;;2621261;47;20884;31
2022/01/10 09:42:21;;;;;;;84.10;46.60;;;2.70;99.90;;;;;;2603102;54;20784;31
2022/01/10 09:45:10;;;;;;;79.13;48.08;;;2.80;99.90;;;;;;2602788;54;20022;31
2022/01/10 09:48:01;;;;;;;79.10;47.47;;;2.90;99.90;;;;;;2621671;47;20077;31
2022/01/10 09:57:05;;;;;;;83.80;48.13;;;3.20;99.90;;;;;;2603093;54;20787;31
2022/01/10 09:59:58;;;;;;;80.88;46.85;;;3.20;99.90;;;;;;2602693;54;20026;31
2022/01/10 10:09:44;;;;;;;85.07;48.87;;;3.40;99.90;;;;;;2603810;54;20077;31
2022/01/10 10:13:03;;;;;;;88.63;48.50;;;3.40;99.90;;;;;;2603452;54;20019;31
2022/01/10 10:15:50;;;;;;;89.30;48.72;;;3.50;99.90;;;;;;2603660;54;20061;31
2022/01/10 10:18:40;;;;;;;87.43;49.97;;;3.50;99.90;;;;;;2622484;46;20027;31
2022/01/10 10:21:17;;;;;;;82.47;48.13;;;3.60;99.90;;;;;;2606599;46;20027;31
2022/01/10 10:24:24;;;;;;;83.25;49.35;;;3.60;99.90;;;;;;2603738;54;20030;31
2022/01/10 10:27:11;;;;;;;83.20;49.30;;;3.70;99.90;;;;;;2603466;54;20033;31
2022/01/10 10:30:04;;;;;;;93.25;50.88;;;3.70;99.90;;;;;;2603742;54;20026;31
2022/01/10 10:32:47;;;;;;;87.35;49.08;;;3.80;99.90;;;;;;2603886;54;20049;31
2022/01/10 10:35:27;;;;;;;83.72;50.40;;;3.90;99.90;;;;;;2603565;54;20821;31
2022/01/10 10:38:05;;;;;;;88.40;48.00;;;3.90;99.90;;;;;;2603539;54;20030;31
2022/01/10 10:41:20;;;;;;;88.40;48.63;;;4.00;99.90;;;;;;2603583;54;20033;31
2022/01/10 10:46:44;;;;;;;88.75;49.88;;;4.00;99.90;;;;;;2603488;54;20027;31
2022/01/10 10:49:25;;;;;;;92.70;51.90;;;4.00;99.90;;;;;;2602650;54;21316;31
2022/01/10 10:52:08;;;;;;;94.18;50.40;;;4.00;99.90;;;;;;2621671;46;20839;31
2022/01/10 10:54:42;;;;;;;89.60;49.97;;;4.00;99.90;;;;;;2603852;54;20037;31
2022/01/10 10:57:24;;;;;;;87.30;50.50;;;4.00;99.90;;;;;;2603879;54;20026;31
2022/01/10 11:00:05;;;;;;;92.00;50.80;;;4.00;99.90;;;;;;2603488;54;20771;31
2022/01/10 11:02:48;;;;;;;90.55;50.25;;;4.00;99.90;;;;;;2603565;54;20023;31
2022/01/10 11:05:24;;;;;;;88.10;51.03;;;3.90;99.90;;;;;;2603528;54;20856;31
2022/01/10 11:08:07;;;;;;;88.43;50.17;;;3.90;99.90;;;;;;2602723;54;20149;31
2022/01/10 11:10:51;;;;;;;87.80;51.83;;;3.90;99.90;;;;;;2603511;54;20884;31
2022/01/10 11:13:37;;;;;;;86.27;50.33;;;3.90;99.90;;;;;;2603555;54;20039;31
2022/01/10 11:16:17;;;;;;;97.57;53.22;;;3.80;99.90;;;;;;2621855;47;20030;31
2022/01/10 11:18:55;;;;;;;90.53;52.70;;;3.80;99.90;;;;;;2622018;46;20026;31
2022/01/10 11:24:50;;;;;;;94.45;51.75;;;3.80;99.90;;;;;;2603536;54;20026;31
2022/01/10 11:33:54;;;;;;;84.68;50.08;;;3.70;99.90;;;;;;2603428;54;20026;31
2022/01/10 11:36:36;;;;;;;91.38;50.00;;;3.70;99.90;;;;;;2621663;46;20143;31
2022/01/10 11:39:13;;;;;;;92.90;48.97;;;3.70;99.90;;;;;;2603342;54;20089;31
2022/01/10 11:41:55;;;;;;;78.55;46.33;;;3.60;99.90;;;;;;2621679;46;20917;31
2022/01/10 11:44:32;;;;;;;90.32;48.22;;;3.60;99.90;;;;;;2603469;54;20049;31
2022/01/10 11:47:12;;;;;;;88.97;48.93;;;3.50;99.90;;;;;;2603254;54;20026;31
2022/01/10 11:49:50;;;;;;;87.75;47.55;;;3.50;99.90;;;;;;2603646;54;20026;31
2022/01/10 11:52:30;;;;;;;82.25;45.63;;;3.50;99.90;;;;;;2621534;46;20911;31
2022/01/10 11:55:25;;;;;;;75.80;42.10;;;3.50;99.90;;;;;;2603527;54;20037;31
2022/01/10 11:58:06;;;;;;;74.20;40.28;;;3.50;99.90;;;;;;2603393;54;20078;31
2022/01/10 12:00:43;;;;;;;65.50;39.00;;;3.40;99.90;;;;;;2603333;54;20030;31
2022/01/10 12:06:16;;;;;;;68.30;39.22;;;3.50;99.90;;;;;;2603138;54;20029;31
2022/01/10 12:14:48;;;;;;;66.13;38.45;;;3.40;99.90;;;;;;2603011;54;20818;31
2022/01/10 12:23:48;;;;;;;71.15;41.10;;;3.30;99.90;;;;;;2602579;54;20052;31
2022/01/10 12:27:05;;;;;;;68.10;40.50;;;3.30;99.90;;;;;;2621444;46;20121;31
2022/01/10 12:29:57;;;;;;;69.55;40.17;;;3.30;99.90;;;;;;2603083;54;20095;31
2022/01/10 12:32:31;;;;;;;68.35;40.70;;;3.20;99.90;;;;;;2603270;54;20843;31
2022/01/10 12:35:25;;;;;;;74.28;41.38;;;3.20;99.90;;;;;;2621213;46;20050;31
2022/01/10 12:47:53;;;;;;;67.13;37.75;;;3.10;99.90;;;;;;2603398;54;20026;31
2022/01/10 12:50:28;;;;;;;66.05;37.10;;;3.00;99.90;;;;;;2603474;54;20034;31
2022/01/10 12:57:17;;;;;;;65.07;38.10;;;2.90;99.90;;;;;;2603272;54;20126;31
2022/01/10 13:02:58;;;;;;;68.00;37.90;;;2.80;99.90;;;;;;2603418;54;20718;31
2022/01/10 13:05:45;;;;;;;65.78;37.70;;;2.70;99.90;;;;;;2603475;54;20141;31
2022/01/10 13:17:54;;;;;;;79.72;42.60;;;2.60;99.90;;;;;;2602948;54;20802;31
2022/01/10 13:23:46;;;;;;;74.90;41.88;;;2.60;99.90;;;;;;2602873;54;20978;31
2022/01/10 13:29:55;;;;;;;69.87;38.80;;;2.70;99.90;;;;;;2602861;54;20033;31
2022/01/10 13:33:07;;;;;;;66.78;38.70;;;2.60;99.90;;;;;;2621423;46;20243;31
2022/01/10 13:39:05;;;;;;;71.40;39.78;;;2.60;99.90;;;;;;2608357;47;20765;31
2022/01/10 13:42:10;;;;;;;65.57;38.70;;;2.60;99.90;;;;;;2622781;46;20872;31
2022/01/10 13:51:44;;;;;;;94.10;60.58;;;2.50;99.90;;;;;;2604590;54;21050;31
2022/01/10 13:55:00;;;;;;;76.47;41.70;;;2.50;99.90;;;;;;2604816;54;20030;31
2022/01/10 14:07:05;;;;;;;70.43;41.30;;;2.30;99.90;;;;;;2622983;46;20858;31
2022/01/10 14:13:01;;;;;;;76.17;41.87;;;2.20;99.90;;;;;;2604618;54;20049;31
2022/01/10 14:15:36;;;;;;;72.50;41.85;;;2.20;99.90;;;;;;2604665;54;20130;31
2022/01/10 14:34:25;;;;;;;83.03;43.03;;;2.00;99.90;;;;;;2604479;54;20052;31
2022/01/10 14:37:04;;;;;;;71.90;39.80;;;1.90;99.90;;;;;;2604261;54;20026;31
2022/01/10 14:42:58;;;;;;;;;;;;;;;;;;;;;
2022/01/10 14:45:37;;;;;;;79.35;45.10;;;1.80;99.90;;;;;;2604581;54;20089;31
2022/01/10 14:48:12;;;;;;;81.68;41.80;;;1.90;99.90;;;;;;2604375;54;20762;31
2022/01/10 14:50:48;;;;;;;87.78;48.30;;;1.90;99.90;;;;;;2622012;46;20914;31
2022/01/10 14:53:29;;;;;;;95.07;50.43;;;1.80;99.90;;;;;;2602819;54;20062;31
2022/01/10 14:56:35;;;;;;;79.38;44.35;;;1.80;99.90;;;;;;2621856;46;21202;31
2022/01/10 14:59:34;;;;;;;91.20;48.63;;;1.80;99.90;;;;;;2603372;54;20049;31
2022/01/10 15:02:24;;;;;;;91.43;50.10;;;1.70;99.90;;;;;;2603336;54;19931;31
2022/01/10 15:10:52;;;;;;;93.00;50.75;;;1.60;99.90;;;;;;2602931;54;20852;31
2022/01/10 15:13:27;;;;;;;95.47;52.38;;;1.60;99.90;;;;;;2602748;54;20892;31
2022/01/10 15:16:09;;;;;;;98.30;53.50;;;1.50;99.90;;;;;;2603779;54;20033;31
2022/01/10 15:18:47;;;;;;;96.17;52.03;;;1.50;99.90;;;;;;2603450;54;20028;31
2022/01/10 15:21:51;;;;;;;90.67;53.03;;;1.50;99.90;;;;;;2603595;54;20027;31
2022/01/10 15:24:28;;;;;;;93.35;50.60;;;1.50;99.90;;;;;;2603534;54;20123;31
2022/01/10 15:27:22;;;;;;;87.95;50.40;;;1.40;99.90;;;;;;2603625;54;20846;31
2022/01/10 15:33:21;;;;;;;89.40;50.80;;;1.30;99.90;;;;;;2603595;54;20026;31
2022/01/10 15:36:12;;;;;;;81.43;45.65;;;1.20;99.90;;;;;;2603645;54;20081;31
2022/01/10 15:38:54;;;;;;;90.53;52.17;;;1.20;99.90;;;;;;2603612;54;20900;31
2022/01/10 15:41:29;;;;;;;89.82;49.95;;;1.10;99.90;;;;;;2603377;54;20896;31
2022/01/10 15:44:10;;;;;;;95.53;52.37;;;1.10;99.90;;;;;;2622228;46;20042;31
2022/01/10 15:46:47;;;;;;;100.30;56.15;;;1.10;99.90;;;;;;2603400;54;20736;31
2022/01/10 15:49:36;;;;;;;101.80;59.10;;;1.10;99.90;;;;;;2606504;46;20034;31
2022/01/10 15:52:26;;;;;;;104.32;55.08;;;1.00;99.90;;;;;;2603334;54;20112;31
2022/01/10 15:58:18;;;;;;;185.30;81.93;;;0.90;99.90;;;;;;2603457;54;20085;31
2022/01/10 16:01:15;;;;;;;131.57;68.43;;;0.80;99.90;;;;;;2614147;46;20944;31
2022/01/10 16:11:12;;;;;;;112.07;58.53;;;0.50;99.90;;;;;;2614344;46;20267;31
2022/01/10 16:13:51;;;;;;;117.15;61.85;;;0.40;99.90;;;;;;2602822;54;20034;31
2022/01/10 16:16:29;;;;;;;117.00;61.90;;;0.30;99.90;;;;;;2603479;54;20027;31
2022/01/10 16:19:45;;;;;;;118.13;58.67;;;0.20;99.90;;;;;;2603027;54;21097;31
2022/01/10 16:22:45;;;;;;;110.85;54.05;;;0.00;99.90;;;;;;2603020;54;20026;31
2022/01/10 16:28:17;;;;;;;106.97;53.50;;;-0.10;99.90;;;;;;2621442;46;20022;31
2022/01/10 16:30:54;;;;;;;106.75;49.05;;;-0.20;99.90;;;;;;2702140;39;21061;31
2022/01/10 16:33:44;;;;;;;109.30;52.20;;;-0.30;99.90;;;;;;2720151;39;22507;31
2022/01/10 16:43:09;;;;;;;96.53;46.40;;;-0.60;99.90;;;;;;2602823;54;20144;31
2022/01/10 16:54:58;;;;;;;96.07;42.63;;;-0.80;99.90;;;;;;2603141;54;20894;31
2022/01/10 16:57:43;;;;;;;86.10;41.60;;;-0.90;99.90;;;;;;2603304;54;20053;31
2022/01/10 17:00:22;;;;;;;95.63;45.13;;;-0.90;99.90;;;;;;2603188;54;20846;31
2022/01/10 17:03:14;;;;;;;96.72;43.85;;;-0.90;99.90;;;;;;2602870;54;20799;31
2022/01/10 17:05:52;;;;;;;99.30;45.95;;;-1.00;99.90;;;;;;2602931;54;20031;31
2022/01/10 17:08:26;;;;;;;98.85;47.85;;;-1.00;99.90;;;;;;2603210;54;20778;31
2022/01/10 17:11:02;;;;;;;102.60;43.92;;;-1.10;99.90;;;;;;2603022;54;20812;31
2022/01/10 17:13:41;;;;;;;95.80;43.37;;;-1.10;99.90;;;;;;2602711;54;20081;31
2022/01/10 17:16:19;;;;;;;99.47;43.00;;;-1.10;99.90;;;;;;2603170;54;20953;31
2022/01/10 17:19:03;;;;;;;99.50;46.25;;;-1.10;99.90;;;;;;2603012;54;20085;31
2022/01/10 17:21:48;;;;;;;99.85;45.25;;;-1.10;99.90;;;;;;2621785;46;20100;31
2022/01/10 17:24:27;;;;;;;96.32;44.38;;;-1.10;99.90;;;;;;2602993;54;20034;31
2022/01/10 17:27:19;;;;;;;98.78;42.88;;;-1.10;99.90;;;;;;2603338;54;20943;31
2022/01/10 17:30:07;;;;;;;94.38;44.53;;;-1.10;99.90;;;;;;2621182;46;20893;31
2022/01/10 17:32:42;;;;;;;96.00;44.30;;;-1.10;99.90;;;;;;2621105;46;20027;31
2022/01/10 17:35:43;;;;;;;103.60;42.65;;;-1.20;99.90;;;;;;2602961;54;20046;31
2022/01/10 17:41:09;;;;;;;97.65;42.10;;;-1.20;99.90;;;;;;2621621;47;20350;31
2022/01/10 17:44:15;;;;;;;97.57;41.47;;;-1.20;99.90;;;;;;2621569;47;20022;31
2022/01/10 17:47:05;;;;;;;89.40;39.38;;;-1.10;99.90;;;;;;2602849;54;20831;31
2022/01/10 17:52:49;;;;;;;87.05;39.65;;;-1.20;99.90;;;;;;2621549;47;20026;31
2022/01/10 17:55:40;;;;;;;97.47;41.40;;;-1.20;99.90;;;;;;2602814;54;20798;31
2022/01/10 18:01:30;;;;;;;106.57;40.95;;;-1.20;99.90;;;;;;2602928;54;20869;31
2022/01/10 18:04:19;;;;;;;101.60;40.40;;;-1.30;99.90;;;;;;2602860;54;20034;31
2022/01/10 18:10:22;;;;;;;92.10;38.43;;;-1.30;99.90;;;;;;2609931;47;20915;31
2022/01/10 18:13:01;;;;;;;87.93;39.17;;;-1.40;99.90;;;;;;2602868;54;20031;31
2022/01/10 18:15:36;;;;;;;95.60;41.00;;;-1.40;99.90;;;;;;2603035;54;20076;31
2022/01/10 18:18:14;;;;;;;88.20;39.25;;;-1.40;99.90;;;;;;2602721;54;20869;31
2022/01/10 18:20:57;;;;;;;90.95;39.65;;;-1.40;99.90;;;;;;2601916;54;20137;31
2022/01/10 18:23:45;;;;;;;81.90;38.53;;;-1.40;99.90;;;;;;2601791;54;20931;31
2022/01/10 18:29:37;;;;;;;86.68;37.75;;;-1.50;99.90;;;;;;2603547;54;20018;31
2022/01/10 18:32:44;;;;;;;86.28;39.20;;;-1.50;99.90;;;;;;2603781;54;20873;31
2022/01/10 18:35:26;;;;;;;78.43;38.65;;;-1.50;99.90;;;;;;2603824;54;20815;31
2022/01/10 18:38:08;;;;;;;82.93;40.20;;;-1.50;99.90;;;;;;2603696;54;20756;31
2022/01/10 18:41:26;;;;;;;78.95;38.20;;;-1.40;99.90;;;;;;2607200;46;20022;31
2022/01/10 18:44:10;;;;;;;94.03;47.73;;;-1.40;99.90;;;;;;2603598;54;20104;31
2022/01/10 18:46:50;;;;;;;93.60;43.08;;;-1.40;99.90;;;;;;2603622;54;20022;31
2022/01/10 18:49:33;;;;;;;140.67;62.03;;;-1.40;99.90;;;;;;2621760;46;20093;31
2022/01/10 18:52:10;;;;;;;127.77;63.20;;;-1.40;99.90;;;;;;2603564;54;20917;31
2022/01/10 18:54:50;;;;;;;89.45;41.80;;;-1.30;99.90;;;;;;2621146;46;20249;31
2022/01/10 18:57:29;;;;;;;77.85;39.40;;;-1.30;99.90;;;;;;2621992;46;20074;31
2022/01/10 19:00:11;;;;;;;86.00;40.90;;;-1.30;99.90;;;;;;2603723;54;20053;31
2022/01/10 19:02:51;;;;;;;83.85;40.58;;;-1.30;99.90;;;;;;2603435;54;20046;31
2022/01/10 19:05:27;;;;;;;77.60;38.08;;;-1.20;99.90;;;;;;2622030;46;20085;31
2022/01/10 19:11:28;;;;;;;90.35;39.50;;;-1.20;99.90;;;;;;2603361;54;20027;31
2022/01/10 19:14:11;;;;;;;87.22;39.10;;;-1.20;99.90;;;;;;2622150;46;20086;31
2022/01/10 19:22:49;;;;;;;66.47;31.35;;;-1.10;99.90;;;;;;2603406;54;20052;31
2022/01/10 19:25:29;;;;;;;78.00;37.40;;;-1.10;99.90;;;;;;2603506;54;20030;31
2022/01/10 19:28:06;;;;;;;101.03;44.03;;;-1.10;99.90;;;;;;2603712;54;20085;31
2022/01/10 19:30:41;;;;;;;;;;;-1.00;99.90;;;;;;2603689;54;20077;31
2022/01/10 19:36:13;;;;;;;85.83;41.23;;;-0.90;99.90;;;;;;2622067;46;20044;31
2022/01/10 19:38:51;;;;;;;80.07;38.05;;;-0.90;99.90;;;;;;2603320;54;20089;31
2022/01/10 19:41:28;;;;;;;84.97;39.25;;;-0.90;99.90;;;;;;2611506;46;20034;31
2022/01/10 19:44:01;;;;;;;81.95;39.10;;;-0.90;99.90;;;;;;2614164;46;22405;31
2022/01/10 19:46:42;;;;;;;89.22;41.45;;;-0.90;99.90;;;;;;2603458;54;20027;31
2022/01/10 19:49:17;;;;;;;85.90;41.83;;;-0.80;99.90;;;;;;2622114;46;21000;31
2022/01/10 19:51:52;;;;;;;;;;;-0.80;99.90;;;;;;2603571;54;20034;31
2022/01/10 19:54:29;;;;;;;83.32;40.38;;;-0.80;99.90;;;;;;2622230;46;19934;31
2022/01/10 19:57:09;;;;;;;78.85;36.15;;;-0.80;99.90;;;;;;2603413;54;20844;31
2022/01/10 19:59:44;;;;;;;77.75;36.70;;;-0.70;99.90;;;;;;2603385;54;20018;31
2022/01/10 20:02:19;;;;;;;81.07;37.08;;;-0.70;99.90;;;;;;2602541;54;20046;31
2022/01/10 20:04:56;;;;;;;77.37;36.07;;;-0.70;99.90;;;;;;2621698;46;20048;31
2022/01/10 20:07:35;;;;;;;84.25;43.38;;;-0.70;99.90;;;;;;2603377;54;20298;31
2022/01/10 20:10:14;;;;;;;101.65;53.72;;;-0.70;99.90;;;;;;2603520;54;20076;31
2022/01/10 20:12:52;;;;;;;104.78;48.45;;;-0.70;99.90;;;;;;2622186;46;20901;31
2022/01/10 20:15:29;;;;;;;84.30;39.92;;;-0.70;99.90;;;;;;2602819;54;20022;31
2022/01/10 20:18:10;;;;;;;81.82;38.92;;;-0.70;99.90;;;;;;2603426;54;20891;31
2022/01/10 20:20:52;;;;;;;79.57;37.90;;;-0.70;99.90;;;;;;2603552;54;20084;31
2022/01/10 20:23:33;;;;;;;80.22;36.45;;;-0.70;99.90;;;;;;2603259;54;20038;31
2022/01/10 20:32:51;;;;;;;81.47;36.63;;;-0.70;99.90;;;;;;2603246;54;20831;31
2022/01/10 20:41:56;;;;;;;80.30;35.25;;;-0.70;99.90;;;;;;2603140;54;20038;31
2022/01/10 20:44:36;;;;;;;81.25;35.47;;;-0.70;99.90;;;;;;2603338;54;20053;31
2022/01/10 21:10:11;;;;;;;76.55;34.67;;;-0.60;99.90;;;;;;2603260;54;20266;31
2022/01/10 21:12:59;;;;;;;67.05;31.70;;;-0.60;99.90;;;;;;2602996;54;20101;31
2022/01/10 21:45:55;;;;;;;54.23;26.37;;;-0.60;99.90;;;;;;2603190;54;20679;31
2022/01/10 21:48:46;;;;;;;56.70;28.85;;;-0.60;99.90;;;;;;2603057;54;20033;31
2022/01/10 22:06:34;;;;;;;59.53;31.23;;;-0.70;99.90;;;;;;2603965;54;20057;31
2022/01/10 22:15:08;;;;;;;60.30;28.20;;;-0.60;99.90;;;;;;2603120;54;20041;31
2022/01/10 22:18:06;;;;;;;;;;;;;;;;;;;;;
2022/01/10 22:21:31;;;;;;;57.90;28.25;;;-0.60;99.90;;;;;;2603488;54;20034;31
2022/01/10 22:47:23;;;;;;;67.60;34.97;;;-0.50;99.90;;;;;;2603212;54;20026;31
2022/01/10 22:53:23;;;;;;;65.13;35.33;;;-0.40;99.90;;;;;;2603814;54;20046;31
2022/01/10 23:09:05;;;;;;;49.70;26.05;;;-0.40;99.90;;;;;;2603493;54;20049;31
2022/01/10 23:11:55;;;;;;;51.83;23.63;;;-0.50;99.90;;;;;;2603216;54;20903;31
2022/01/10 23:14:53;;;;;;;49.88;26.17;;;-0.50;99.90;;;;;;2603406;54;21010;31
2022/01/10 23:30:56;;;;;;;38.30;18.92;;;-0.50;99.90;;;;;;2603560;54;20882;31
2022/01/10 23:33:44;;;;;;;37.53;18.77;;;-0.60;99.90;;;;;;2612278;46;20022;31
2022/01/10 23:49:44;;;;;;;29.95;15.00;;;-0.70;99.90;;;;;;2702113;39;22348;31
